KGRF/GRF METAR and TAF weather

Enter ICAO airport designator
Station Type Date Time Source
KGRF METAR 2020/04/04 10:58 UTC NOAA

KGRF 041058Z AUTO 00000KT 10SM OVC050 00/00 A2991 RMK AO2 SLP134 T10031003 $


Station Type Date Time Source
KGRF Decoded METAR 2020/04/04 10:58 UTC NOAA

Fort Lewis / Gray U. S. Army Airfield, WA, United States (KGRF) 47-07N 122-33W 87M
Apr 04, 2020 - 06:58 AM EDT / 2020.04.04 1058 UTC
Wind: Calm:0
Visibility: 10 mile(s):0
Sky conditions: overcast
Temperature: 31.5 F (-0.3 C)
Dew Point: 31.5 F (-0.3 C)
Relative Humidity: 100%
Pressure (altimeter): 29.91 in. Hg (1012 hPa)
ob: KGRF 041058Z AUTO 00000KT 10SM OVC050 00/00 A2991 RMK AO2 SLP134 T10031003
cycle: 11

Station Type Date Time Source
KGRF TAF 2020/04/04 02:34 UTC NOAA

TAF
AMD KGRF 040224Z 0402/0503 VRB06KT 9999 OVC060 620603 QNH2980INS
BECMG 0417/0418 03006KT 9999 SCT040 BKN150 QNH2970INS
BECMG 0421/0422 01009KT 9999 VCSH BKN040 OVC150 610402 QNH2964INS TX06/0402Z TN00/0415Z

Example: see airport list